Tipton Airport
KFME : now visible

Airfield :











YOU CAN JOIN US ON...

 
LOGIN :

Register | Disclaimer

   EN    FR    IT 

 









Legend :    VFR   Marginal VFR   IFR   Intensive IFR   Very Intensive IFR
Visi :
Ceiling :
>= 8 km
>= 3000ft
5 to 8 km
1000 to 3000 ft
1500m to 5 km
500 to 1000 ft
800 to 1500m
200 to 500 ft
< 800m
< 200 ft
Symbols :   Thunderstorms  Fog  Heavy snow  Heavy precipitations  Wind > 20 kt






- Airport Elevation : 150 ft


KFME - Tipton

CURRENT METAR :
  • 231935Z AUTO 00000KT 10SM CLR 28/10 A3015 RMK AO1

EXPIRED METARs :
  • 231915Z AUTO 10SM CLR 28/12 A3016 RMK AO1
  • 231855Z AUTO 00000KT 10SM CLR 28/11 A3016 RMK AO1
  • 231835Z AUTO 29005KT 10SM CLR 29/12 A3016 RMK AO1
  • 231815Z AUTO 00000KT 10SM CLR 27/10 A3017 RMK AO1
  • 231755Z AUTO 00000KT 10SM SCT065 27/12 A3017 RMK AO1
  • 231735Z AUTO 00000KT 10SM BKN065 27/12 A3017 RMK AO1
  • 231715Z AUTO 07005KT 10SM BKN065 27/12 A3018 RMK AO1
  • 231655Z AUTO 09006KT 10SM SCT065 26/12 A3018 RMK AO1

TAF N/A
KZDC FIR / North America



MET'MAP, your aeronautical weather chart ! - Copyright ORBIFLY December 2007 - Disclaimer

ORBIFLY MET'MAP TEAM :

Programming & Development : Alexandra Zaïnal
Concept & original design : Baudouin d'Aumeries
Assistance for programming : Marc-Olivier Méhu
Technical & hardware support : Manuel Goepfert

Contact : metmap@orbifly.com




SOURCES & CREDITS :

   NOAA       Earth
Advisory